createdAt,value
2022-09-15T00:02:26.954Z,24.08
2022-09-15T00:04:56.752Z,23.97
2022-09-15T00:07:24.870Z,23.92
2022-09-15T00:09:54.793Z,24.02
2022-09-15T00:12:25.638Z,24.00
2022-09-15T00:14:53.284Z,24.01
2022-09-15T00:17:23.834Z,24.11
2022-09-15T00:19:54.814Z,24.10
2022-09-15T00:22:22.874Z,24.07
2022-09-15T00:24:52.838Z,23.97
2022-09-15T00:27:23.993Z,23.97
2022-09-15T00:29:52.330Z,24.00
2022-09-15T00:32:19.799Z,23.81
2022-09-15T00:34:51.377Z,23.81
2022-09-15T00:37:19.844Z,23.81
2022-09-15T00:39:47.410Z,23.81
2022-09-15T00:42:21.354Z,23.88
2022-09-15T00:44:53.532Z,23.85
2022-09-15T00:47:24.244Z,23.83
2022-09-15T00:49:59.314Z,23.71
2022-09-15T00:52:37.796Z,23.45
2022-09-15T00:55:09.646Z,23.34
2022-09-15T00:57:43.788Z,23.22
2022-09-15T01:00:20.001Z,23.35
2022-09-15T01:02:47.791Z,23.45
2022-09-15T01:05:19.578Z,23.45
2022-09-15T01:07:56.190Z,23.47
2022-09-15T01:10:33.041Z,23.56
2022-09-15T01:13:01.975Z,23.54
2022-09-15T01:15:52.575Z,23.56
2022-09-15T01:18:22.955Z,23.67
2022-09-15T01:20:53.156Z,23.78
2022-09-15T01:23:24.033Z,23.81
2022-09-15T01:26:14.396Z,23.60
2022-09-15T01:29:00.464Z,23.60
2022-09-15T01:31:31.000Z,23.22
2022-09-15T01:34:02.744Z,23.40
2022-09-15T01:36:38.249Z,23.51
2022-09-15T01:39:21.741Z,23.53
2022-09-15T01:42:09.464Z,23.55
2022-09-15T01:44:37.089Z,23.55
2022-09-15T01:47:07.215Z,23.46
2022-09-15T01:49:36.723Z,23.52
2022-09-15T01:52:10.014Z,23.62
2022-09-15T01:54:44.408Z,23.70
2022-09-15T01:57:17.251Z,23.37
2022-09-15T01:59:48.176Z,23.41
2022-09-15T02:02:32.237Z,23.46
2022-09-15T02:05:04.436Z,23.41
2022-09-15T02:07:52.117Z,23.42
2022-09-15T02:10:32.806Z,23.02
2022-09-15T02:13:32.540Z,22.90
2022-09-15T02:16:05.015Z,22.82
2022-09-15T02:18:45.286Z,22.96
2022-09-15T02:21:15.742Z,23.09
2022-09-15T02:23:46.874Z,23.25
2022-09-15T02:26:18.073Z,23.33
2022-09-15T02:28:47.816Z,23.38
2022-09-15T02:31:19.225Z,23.33
2022-09-15T02:33:52.158Z,23.45
2022-09-15T02:36:22.532Z,23.50
2022-09-15T02:38:55.047Z,23.35
2022-09-15T02:41:25.789Z,23.08
2022-09-15T02:43:59.104Z,23.07
2022-09-15T02:46:28.998Z,23.20
2022-09-15T02:48:57.112Z,23.24
2022-09-15T02:51:28.112Z,23.32
2022-09-15T02:53:59.038Z,22.69
2022-09-15T02:56:32.590Z,22.41
2022-09-15T02:59:00.134Z,22.81
2022-09-15T03:01:32.338Z,22.88
2022-09-15T03:04:03.599Z,23.09
2022-09-15T03:06:36.248Z,23.15
2022-09-15T03:09:09.977Z,23.21
2022-09-15T03:11:37.455Z,23.30
2022-09-15T03:14:08.251Z,23.16
2022-09-15T03:16:40.556Z,23.05
2022-09-15T03:19:10.583Z,23.10
2022-09-15T03:21:40.615Z,23.20
2022-09-15T03:24:11.047Z,23.13
2022-09-15T03:26:42.117Z,23.15
2022-09-15T03:29:14.213Z,23.21
2022-09-15T03:31:43.078Z,23.27
2022-09-15T03:34:10.639Z,23.05
2022-09-15T03:36:38.716Z,23.10
2022-09-15T03:39:08.476Z,23.17
2022-09-15T03:41:36.447Z,22.87
2022-09-15T03:44:05.150Z,22.53
2022-09-15T03:46:34.926Z,22.78
2022-09-15T03:49:08.506Z,22.80
2022-09-15T03:51:39.387Z,22.99
2022-09-15T03:54:09.411Z,23.05
2022-09-15T03:56:37.311Z,23.10
2022-09-15T03:59:06.332Z,22.44
2022-09-15T04:01:36.714Z,22.32
2022-09-15T04:04:07.019Z,22.60
2022-09-15T04:06:35.782Z,22.42
2022-09-15T04:09:08.872Z,22.39
2022-09-15T04:11:37.122Z,22.19
2022-09-15T04:14:06.966Z,22.43
2022-09-15T04:16:34.642Z,22.63
2022-09-15T04:19:07.696Z,22.89
2022-09-15T04:21:37.567Z,22.91
2022-09-15T04:24:06.091Z,22.65
2022-09-15T04:26:40.315Z,22.44
2022-09-15T04:29:11.604Z,22.60
2022-09-15T04:31:41.590Z,22.54
2022-09-15T04:34:09.492Z,22.54
2022-09-15T04:36:42.230Z,22.49
2022-09-15T04:39:11.129Z,22.52
2022-09-15T04:41:39.162Z,22.72
2022-09-15T04:44:07.508Z,22.73
2022-09-15T04:46:37.839Z,22.76
2022-09-15T04:49:08.293Z,22.82
2022-09-15T04:51:36.365Z,22.89
2022-09-15T04:54:06.357Z,22.96
2022-09-15T04:56:36.090Z,22.88
2022-09-15T04:59:04.403Z,22.88
2022-09-15T05:01:38.172Z,22.85
2022-09-15T05:04:08.450Z,22.73
2022-09-15T05:06:39.263Z,22.85
2022-09-15T05:09:12.729Z,22.80
2022-09-15T05:11:40.349Z,22.81
2022-09-15T05:14:10.294Z,22.92
2022-09-15T05:16:57.876Z,22.82
2022-09-15T05:19:25.485Z,22.97
2022-09-15T05:21:55.188Z,22.99
2022-09-15T05:24:25.114Z,22.90
2022-09-15T05:26:52.753Z,22.99
2022-09-15T05:29:26.035Z,22.91
2022-09-15T05:31:57.497Z,22.90
2022-09-15T05:34:24.716Z,22.77
2022-09-15T05:36:51.994Z,22.85
2022-09-15T05:39:25.344Z,22.90
2022-09-15T05:41:52.920Z,22.71
2022-09-15T05:44:43.599Z,22.62
2022-09-15T05:47:14.548Z,22.68
2022-09-15T05:49:48.052Z,22.79
2022-09-15T05:52:15.836Z,22.84
2022-09-15T05:54:54.701Z,22.83
2022-09-15T05:57:28.546Z,22.99
2022-09-15T06:00:01.373Z,22.97
2022-09-15T06:02:41.669Z,22.80
2022-09-15T06:05:09.411Z,22.89
2022-09-15T06:07:38.407Z,22.93
2022-09-15T06:10:31.304Z,22.79
2022-09-15T06:12:58.824Z,22.72
2022-09-15T06:15:29.133Z,22.85
2022-09-15T06:17:56.360Z,22.60
2022-09-15T06:20:26.495Z,22.70
2022-09-15T06:22:57.085Z,22.89
2022-09-15T06:25:27.061Z,22.80
2022-09-15T06:27:54.892Z,22.97
2022-09-15T06:30:22.595Z,22.95
2022-09-15T06:32:50.009Z,22.96
2022-09-15T06:35:21.326Z,22.58
2022-09-15T06:37:48.918Z,22.63
2022-09-15T06:40:16.421Z,22.75
2022-09-15T06:42:47.317Z,22.62
2022-09-15T06:45:17.626Z,22.59
2022-09-15T06:47:58.239Z,22.43
2022-09-15T06:50:41.555Z,22.37
2022-09-15T06:53:11.717Z,22.53
2022-09-15T06:55:39.172Z,22.31
2022-09-15T06:58:09.526Z,22.62
2022-09-15T07:00:37.019Z,22.90
2022-09-15T07:03:06.766Z,23.00
2022-09-15T07:05:37.360Z,22.89
2022-09-15T07:08:04.869Z,23.09
2022-09-15T07:10:38.231Z,23.11
2022-09-15T07:13:11.689Z,22.66
2022-09-15T07:15:42.012Z,22.90
2022-09-15T07:18:12.270Z,22.99
2022-09-15T07:20:41.957Z,23.08
2022-09-15T07:23:09.632Z,23.29
2022-09-15T07:25:44.238Z,23.33
2022-09-15T07:28:14.489Z,23.27
2022-09-15T07:30:42.035Z,23.23
2022-09-15T07:33:10.542Z,23.37
2022-09-15T07:35:41.907Z,23.46
2022-09-15T07:38:12.652Z,23.45
2022-09-15T07:40:44.591Z,23.54
2022-09-15T07:43:15.183Z,23.71
2022-09-15T07:45:45.082Z,23.70
2022-09-15T07:48:12.583Z,23.73
2022-09-15T07:50:40.069Z,23.67
2022-09-15T07:53:10.581Z,23.71
2022-09-15T07:55:40.391Z,23.82
2022-09-15T07:58:12.697Z,23.98
2022-09-15T08:00:42.795Z,24.18
2022-09-15T08:03:12.544Z,24.22
2022-09-15T08:05:45.252Z,24.34
2022-09-15T08:08:18.090Z,24.23
2022-09-15T08:10:50.863Z,24.48
2022-09-15T08:13:18.756Z,24.61
2022-09-15T08:15:54.343Z,24.39
2022-09-15T08:18:22.498Z,24.54
2022-09-15T08:20:49.942Z,24.95
2022-09-15T08:23:19.364Z,25.03
2022-09-15T08:25:55.460Z,25.10
2022-09-15T08:28:22.931Z,25.09
2022-09-15T08:30:53.217Z,25.23
2022-09-15T08:33:20.849Z,25.39
2022-09-15T08:35:48.338Z,25.33
2022-09-15T08:38:18.443Z,25.45
2022-09-15T08:40:46.011Z,25.56
2022-09-15T08:43:19.196Z,25.81
2022-09-15T08:45:50.686Z,26.00
2022-09-15T08:48:21.046Z,25.87
2022-09-15T08:50:49.190Z,25.93
2022-09-15T08:53:17.485Z,25.82
2022-09-15T08:59:33.273Z,26.00
2022-09-15T09:02:06.195Z,26.13
2022-09-15T09:04:48.148Z,26.13
2022-09-15T09:07:34.391Z,26.13
2022-09-15T09:10:16.377Z,26.16
2022-09-15T09:12:54.575Z,26.47
2022-09-15T09:15:33.846Z,26.69
2022-09-15T09:18:07.547Z,26.81
2022-09-15T09:20:37.939Z,26.81
2022-09-15T09:23:12.975Z,27.16
2022-09-15T09:25:43.364Z,27.03
2022-09-15T09:28:22.873Z,27.04
2022-09-15T09:30:50.509Z,27.27
2022-09-15T09:33:25.058Z,27.27
2022-09-15T09:35:53.094Z,27.21
2022-09-15T09:38:22.035Z,27.26
2022-09-15T09:40:49.504Z,27.31
2022-09-15T09:43:19.409Z,27.38
2022-09-15T09:45:49.474Z,27.66
2022-09-15T09:48:20.765Z,27.84
2022-09-15T09:50:50.219Z,27.75
2022-09-15T09:53:19.261Z,27.83
2022-09-15T09:55:50.016Z,27.91
2022-09-15T09:58:21.113Z,27.83
2022-09-15T10:00:51.745Z,27.96
2022-09-15T10:03:32.672Z,28.15
2022-09-15T10:06:08.835Z,28.10
2022-09-15T10:08:37.497Z,28.01
2022-09-15T10:11:05.917Z,28.22
2022-09-15T10:13:36.694Z,28.70
2022-09-15T10:16:08.476Z,28.51
2022-09-15T10:18:39.810Z,28.62
2022-09-15T10:21:11.355Z,28.46
2022-09-15T10:23:40.058Z,28.80
2022-09-15T10:26:21.447Z,28.75
2022-09-15T10:29:10.446Z,28.70
2022-09-15T10:31:40.593Z,29.06
2022-09-15T10:34:26.347Z,29.09
2022-09-15T10:37:23.097Z,29.25
2022-09-15T10:39:54.557Z,29.34
2022-09-15T10:42:25.006Z,29.24
2022-09-15T10:45:01.869Z,29.70
2022-09-15T10:47:46.437Z,29.68
2022-09-15T10:50:29.561Z,29.77
2022-09-15T10:53:06.293Z,29.66
2022-09-15T10:58:43.639Z,29.75
2022-09-15T11:01:19.941Z,30.05
2022-09-15T11:04:10.792Z,30.12
2022-09-15T11:06:50.236Z,30.18
2022-09-15T11:09:36.455Z,30.36
2022-09-15T11:12:03.661Z,30.51
2022-09-15T11:14:47.331Z,30.66
2022-09-15T11:20:25.163Z,31.93
2022-09-15T11:23:01.084Z,32.41
2022-09-15T11:25:31.873Z,32.11
2022-09-15T11:28:13.714Z,33.67
2022-09-15T11:30:47.789Z,34.60
2022-09-15T11:33:26.379Z,35.41
2022-09-15T11:35:55.069Z,36.78
2022-09-15T11:38:31.060Z,36.09
2022-09-15T11:41:03.830Z,37.40
2022-09-15T11:43:50.313Z,37.38
2022-09-15T11:46:32.967Z,39.08
2022-09-15T11:49:14.168Z,38.41
2022-09-15T11:51:51.140Z,38.71
2022-09-15T11:54:34.824Z,39.88
2022-09-15T11:57:05.183Z,38.39
2022-09-15T11:59:39.414Z,37.46
2022-09-15T12:02:16.332Z,37.23
2022-09-15T12:04:58.625Z,37.65
2022-09-15T12:07:30.902Z,37.16
2022-09-15T12:10:06.491Z,37.24
2022-09-15T12:12:36.406Z,37.32
2022-09-15T12:15:04.828Z,38.05
2022-09-15T12:17:35.114Z,37.77
2022-09-15T12:20:04.234Z,38.82
2022-09-15T12:22:32.390Z,39.46
2022-09-15T12:25:04.128Z,39.48
2022-09-15T12:27:36.219Z,40.64
2022-09-15T12:30:04.156Z,40.00
2022-09-15T12:32:33.332Z,37.66
2022-09-15T12:35:36.065Z,36.58
2022-09-15T12:38:03.482Z,36.46
2022-09-15T12:40:33.863Z,38.36
2022-09-15T12:43:19.845Z,39.77
2022-09-15T12:46:01.652Z,40.00
2022-09-15T12:48:32.374Z,40.69
2022-09-15T12:51:00.832Z,40.92
2022-09-15T12:53:32.262Z,39.34
2022-09-15T12:55:59.754Z,40.60
2022-09-15T12:58:34.157Z,40.74
2022-09-15T13:01:20.462Z,40.65
2022-09-15T13:03:51.043Z,40.78
2022-09-15T13:06:24.678Z,41.50
2022-09-15T13:08:53.084Z,38.39
2022-09-15T13:11:23.453Z,38.86
2022-09-15T13:14:12.215Z,40.24
2022-09-15T13:16:50.471Z,40.37
2022-09-15T13:19:29.808Z,39.77
2022-09-15T13:22:12.465Z,39.24
2022-09-15T13:24:47.172Z,38.22
2022-09-15T13:27:17.022Z,36.61
2022-09-15T13:29:57.742Z,36.16
2022-09-15T13:32:44.058Z,35.16
2022-09-15T13:35:19.143Z,32.46
2022-09-15T13:38:16.945Z,32.04
2022-09-15T13:41:07.947Z,31.50
2022-09-15T13:43:48.272Z,31.27
2022-09-15T13:46:15.887Z,30.57
2022-09-15T13:49:02.284Z,30.52
2022-09-15T13:51:35.270Z,30.85
2022-09-15T13:54:03.776Z,30.83
2022-09-15T13:56:53.423Z,30.96
2022-09-15T14:00:00.111Z,30.81
2022-09-15T14:02:35.297Z,30.14
2022-09-15T14:05:06.181Z,29.95
2022-09-15T14:07:42.833Z,29.87
2022-09-15T14:10:23.520Z,29.63
2022-09-15T14:13:02.576Z,29.38
2022-09-15T14:15:30.583Z,29.50
2022-09-15T14:18:17.145Z,29.63
2022-09-15T14:20:47.173Z,29.32
2022-09-15T14:23:39.447Z,29.19
2022-09-15T14:26:12.877Z,29.22
2022-09-15T14:28:50.226Z,29.03
2022-09-15T14:31:38.127Z,28.91
2022-09-15T14:34:07.415Z,28.84
2022-09-15T14:37:00.986Z,29.00
2022-09-15T14:39:29.205Z,28.99
2022-09-15T14:42:05.633Z,28.76
2022-09-15T14:47:31.409Z,28.64
2022-09-15T14:50:32.550Z,28.68
2022-09-15T14:53:04.935Z,28.68
2022-09-15T14:55:52.801Z,28.62
2022-09-15T14:58:20.261Z,28.37
2022-09-15T15:00:58.851Z,28.42
2022-09-15T15:03:26.270Z,28.53
2022-09-15T15:06:02.664Z,28.22
2022-09-15T15:08:35.838Z,28.01
2022-09-15T15:11:04.890Z,28.01
2022-09-15T15:13:38.310Z,27.97
2022-09-15T15:16:10.547Z,27.91
2022-09-15T15:18:43.813Z,27.80
2022-09-15T15:21:31.099Z,27.95
2022-09-15T15:24:03.983Z,27.95
2022-09-15T15:26:35.533Z,27.96
2022-09-15T15:29:04.458Z,28.00
2022-09-15T15:31:32.184Z,27.72
2022-09-15T15:34:09.624Z,27.75
2022-09-15T15:36:39.511Z,27.71
2022-09-15T15:39:20.329Z,27.67
2022-09-15T15:44:18.946Z,27.90
2022-09-15T15:46:54.842Z,27.89
2022-09-15T15:49:27.508Z,27.79
2022-09-15T15:51:55.646Z,27.74
2022-09-15T15:54:28.430Z,27.64
2022-09-15T15:57:01.433Z,27.65
2022-09-15T15:59:32.440Z,27.63
2022-09-15T16:01:59.963Z,27.46
2022-09-15T16:04:27.489Z,27.51
2022-09-15T16:07:00.448Z,27.45
2022-09-15T16:09:30.133Z,27.45
2022-09-15T16:12:00.520Z,27.42
2022-09-15T16:14:31.255Z,27.21
2022-09-15T16:17:01.545Z,27.31
2022-09-15T16:19:31.483Z,27.17
2022-09-15T16:21:59.053Z,27.15
2022-09-15T16:24:29.375Z,27.01
2022-09-15T16:26:59.205Z,27.06
2022-09-15T16:29:36.387Z,27.05
2022-09-15T16:32:03.897Z,26.99
2022-09-15T16:34:33.950Z,27.01
2022-09-15T16:37:01.569Z,26.90
2022-09-15T16:39:31.560Z,27.09
2022-09-15T16:42:01.816Z,27.08
2022-09-15T16:44:29.470Z,26.94
2022-09-15T16:47:00.004Z,27.11
2022-09-15T16:49:27.764Z,26.99
2022-09-15T16:51:55.314Z,26.78
2022-09-15T16:54:23.548Z,26.84
2022-09-15T16:56:54.003Z,26.82
2022-09-15T16:59:24.888Z,26.97
2022-09-15T17:01:55.845Z,26.93
2022-09-15T17:04:23.290Z,26.82
2022-09-15T17:06:53.758Z,26.90
2022-09-15T17:09:21.331Z,26.81
2022-09-15T17:11:48.805Z,26.80
2022-09-15T17:14:19.893Z,26.79
2022-09-15T17:16:52.925Z,26.59
2022-09-15T17:19:20.482Z,26.74
2022-09-15T17:21:48.141Z,26.68
2022-09-15T17:24:17.952Z,26.81
2022-09-15T17:26:47.506Z,26.87
2022-09-15T17:29:15.081Z,26.91
2022-09-15T17:31:45.373Z,26.74
2022-09-15T17:34:15.683Z,26.61
2022-09-15T17:36:45.932Z,26.55
2022-09-15T17:39:16.441Z,26.47
2022-09-15T17:41:45.398Z,26.39
2022-09-15T17:44:12.978Z,26.48
2022-09-15T17:46:40.554Z,26.45
2022-09-15T17:49:09.114Z,26.40
2022-09-15T17:51:39.455Z,26.55
2022-09-15T17:54:09.463Z,26.65
2022-09-15T17:56:37.115Z,26.74
2022-09-15T17:59:04.682Z,26.57
2022-09-15T18:01:40.024Z,26.52
2022-09-15T18:04:11.268Z,26.25
2022-09-15T18:06:45.677Z,26.08
2022-09-15T18:09:19.610Z,26.13
2022-09-15T18:11:49.443Z,25.86
2022-09-15T18:14:20.750Z,25.92
2022-09-15T18:16:52.222Z,25.97
2022-09-15T18:19:22.211Z,25.67
2022-09-15T18:21:53.590Z,25.81
2022-09-15T18:24:26.565Z,26.01
2022-09-15T18:26:59.450Z,26.15
2022-09-15T18:29:29.888Z,26.19
2022-09-15T18:32:03.204Z,26.29
2022-09-15T18:34:33.478Z,26.22
2022-09-15T18:37:06.444Z,26.08
2022-09-15T18:39:34.294Z,26.15
2022-09-15T18:42:01.796Z,25.94
2022-09-15T18:44:30.302Z,26.10
2022-09-15T18:46:58.604Z,25.78
2022-09-15T18:49:30.354Z,25.67
2022-09-15T18:52:02.541Z,25.87
2022-09-15T18:54:34.993Z,26.05
2022-09-15T18:57:07.799Z,25.93
2022-09-15T18:59:41.253Z,25.96
2022-09-15T19:02:12.229Z,26.05
2022-09-15T19:04:40.709Z,26.10
2022-09-15T19:07:09.187Z,25.83
2022-09-15T19:09:36.764Z,25.83
2022-09-15T19:12:05.506Z,25.89
2022-09-15T19:14:33.065Z,25.90
2022-09-15T19:17:00.569Z,25.98
2022-09-15T19:19:31.112Z,25.93
2022-09-15T19:21:59.058Z,25.97
2022-09-15T19:24:51.670Z,25.90
2022-09-15T19:27:19.272Z,26.09
2022-09-15T19:29:49.984Z,25.92
2022-09-15T19:32:22.984Z,26.03
2022-09-15T19:34:53.628Z,26.04
2022-09-15T19:37:40.407Z,26.06
2022-09-15T19:40:13.671Z,25.90
2022-09-15T19:42:46.609Z,25.24
2022-09-15T19:45:14.049Z,25.49
2022-09-15T19:50:29.888Z,24.97
2022-09-15T19:52:59.549Z,25.35
2022-09-15T19:55:34.381Z,25.52
2022-09-15T19:58:02.840Z,25.69
2022-09-15T20:00:30.239Z,25.47
2022-09-15T20:03:00.724Z,25.66
2022-09-15T20:05:34.075Z,25.65
2022-09-15T20:08:04.578Z,25.71
2022-09-15T20:11:01.215Z,25.77
2022-09-15T20:13:31.769Z,25.50
2022-09-15T20:16:03.098Z,25.62
2022-09-15T20:18:32.755Z,25.44
2022-09-15T20:21:08.695Z,25.59
2022-09-15T20:23:38.581Z,25.66
2022-09-15T20:28:55.809Z,25.52
2022-09-15T20:31:24.374Z,25.50
2022-09-15T20:33:54.920Z,25.43
2022-09-15T20:36:29.507Z,25.39
2022-09-15T20:38:59.140Z,25.46
2022-09-15T20:41:29.386Z,25.50
2022-09-15T20:44:00.616Z,25.33
2022-09-15T20:46:36.273Z,25.40
2022-09-15T20:49:26.514Z,25.53
2022-09-15T20:51:56.338Z,25.53
2022-09-15T20:54:26.140Z,25.38
2022-09-15T20:56:59.847Z,25.42
2022-09-15T20:59:32.523Z,25.48
2022-09-15T21:02:04.760Z,25.45
2022-09-15T21:04:35.427Z,25.46
2022-09-15T21:07:08.617Z,25.47
2022-09-15T21:09:38.699Z,25.38
2022-09-15T21:12:10.003Z,25.38
2022-09-15T21:14:37.774Z,25.47
2022-09-15T21:17:05.892Z,25.13
2022-09-15T21:19:38.048Z,25.14
2022-09-15T21:22:10.230Z,25.31
2022-09-15T21:24:40.759Z,25.22
2022-09-15T21:27:31.136Z,25.21
2022-09-15T21:30:03.287Z,25.29
2022-09-15T21:32:34.412Z,25.37
2022-09-15T21:35:09.988Z,25.46
2022-09-15T21:38:02.807Z,25.44
2022-09-15T21:40:33.806Z,25.29
2022-09-15T21:43:04.321Z,25.35
2022-09-15T21:45:39.318Z,25.41
2022-09-15T21:48:08.974Z,25.15
2022-09-15T21:50:38.558Z,25.24
2022-09-15T21:53:07.596Z,24.72
2022-09-15T21:55:37.712Z,24.79
2022-09-15T21:58:10.948Z,24.87
2022-09-15T22:00:44.453Z,25.00
2022-09-15T22:03:17.914Z,25.08
2022-09-15T22:05:49.834Z,24.83
2022-09-15T22:08:20.952Z,25.01
2022-09-15T22:10:58.745Z,25.10
2022-09-15T22:13:32.712Z,25.11
2022-09-15T22:16:03.682Z,25.11
2022-09-15T22:18:40.654Z,25.10
2022-09-15T22:21:24.901Z,25.22
2022-09-15T22:23:54.379Z,25.27
2022-09-15T22:26:32.511Z,25.13
2022-09-15T22:29:03.119Z,25.07
2022-09-15T22:31:33.964Z,24.97
2022-09-15T22:34:04.794Z,24.99
2022-09-15T22:36:35.162Z,24.97
2022-09-15T22:39:06.356Z,25.04
2022-09-15T22:41:37.608Z,24.99
2022-09-15T22:44:08.487Z,24.95
2022-09-15T22:46:39.683Z,25.03
2022-09-15T22:49:09.881Z,25.07
2022-09-15T22:51:43.179Z,25.07
2022-09-15T22:54:16.118Z,25.02
2022-09-15T22:56:49.821Z,25.04
2022-09-15T22:59:20.329Z,24.71
2022-09-15T23:01:50.865Z,24.66
2022-09-15T23:04:19.323Z,24.47
2022-09-15T23:06:50.111Z,24.66
2022-09-15T23:09:20.744Z,24.67
2022-09-15T23:11:51.252Z,24.72
2022-09-15T23:14:44.192Z,24.79
2022-09-15T23:17:14.877Z,24.66
2022-09-15T23:19:48.314Z,24.39
2022-09-15T23:22:15.645Z,24.43
2022-09-15T23:24:45.509Z,24.54
2022-09-15T23:27:23.290Z,24.67
2022-09-15T23:29:55.209Z,24.50
2022-09-15T23:32:25.645Z,24.48
2022-09-15T23:35:15.970Z,24.46
2022-09-15T23:37:47.189Z,24.60
2022-09-15T23:40:21.681Z,24.49
2022-09-15T23:42:55.991Z,24.52
2022-09-15T23:45:24.285Z,24.52
2022-09-15T23:47:57.325Z,24.55
2022-09-15T23:50:29.260Z,24.57
2022-09-15T23:53:00.973Z,24.54
2022-09-15T23:55:31.327Z,24.56
2022-09-15T23:58:02.760Z,24.61
